Moenkopi, Arizona
Current Conditions -  °F | °C
As of 12:54 AM on Monday 24 Nov 2014 (Local Time) from KGCN Reporting Station
Few Clouds Few Clouds  
Wind Chill: 12°   Ceiling: Unl
Heat Index: 12°   Visibility: 10mi
Dew Point: -6°   Wind: 0mph
Humidity: 44%   Direction: NA
Pressure: 30.23"   Gusts: NA
Location:  35.9808°N, 111.359°W
Report Text: KGCN 240754Z AUTO 00000KT 10SM FEW120 M11/M21 A3023 RMK AO2 SLP251 T11111211
Loading
Personal Weather Stations






























Interactive Weather Map New forecast layout! Learn more

10-Day Weather Forecast

Advertisements
Track Severe Weather on mobile